createdAt,value
2023-03-22T00:00:19.042Z,86.41
2023-03-22T00:02:50.977Z,86.06
2023-03-22T00:05:22.012Z,85.40
2023-03-22T00:07:55.272Z,85.05
2023-03-22T00:10:32.579Z,85.18
2023-03-22T00:13:03.516Z,84.94
2023-03-22T00:15:34.241Z,85.02
2023-03-22T00:18:06.925Z,85.32
2023-03-22T00:20:39.858Z,85.43
2023-03-22T00:23:10.445Z,85.57
2023-03-22T00:25:41.380Z,85.77
2023-03-22T00:28:12.695Z,86.09
2023-03-22T00:30:43.870Z,86.12
2023-03-22T00:33:14.464Z,86.42
2023-03-22T00:35:56.751Z,86.53
2023-03-22T00:38:41.434Z,86.70
2023-03-22T00:41:21.642Z,86.60
2023-03-22T00:43:54.061Z,86.67
2023-03-22T00:46:24.739Z,87.43
2023-03-22T00:48:54.549Z,87.30
2023-03-22T00:51:25.662Z,87.09
2023-03-22T00:53:56.220Z,87.27
2023-03-22T00:56:29.938Z,87.98
2023-03-22T00:59:11.252Z,87.44
2023-03-22T01:01:43.886Z,87.32
2023-03-22T01:04:19.153Z,87.14
2023-03-22T01:06:49.925Z,86.82
2023-03-22T01:09:25.000Z,87.32
2023-03-22T01:11:55.745Z,88.19
2023-03-22T01:14:27.610Z,87.92
2023-03-22T01:16:58.828Z,88.40
2023-03-22T01:19:29.178Z,88.22
2023-03-22T01:21:59.143Z,89.32
2023-03-22T01:24:30.298Z,89.30
2023-03-22T01:27:00.975Z,89.66
2023-03-22T01:29:32.975Z,89.58
2023-03-22T01:32:05.253Z,90.29
2023-03-22T01:34:35.570Z,90.53
2023-03-22T01:37:07.897Z,91.50
2023-03-22T01:39:40.285Z,91.66
2023-03-22T01:42:15.713Z,91.97
2023-03-22T01:44:47.895Z,92.47
2023-03-22T01:47:19.639Z,91.82
2023-03-22T01:49:50.918Z,91.69
2023-03-22T01:52:21.645Z,91.97
2023-03-22T01:55:06.056Z,91.52
2023-03-22T01:57:48.343Z,91.47
2023-03-22T02:00:25.125Z,91.77
2023-03-22T02:03:10.746Z,91.57
2023-03-22T02:05:48.017Z,91.50
2023-03-22T02:08:19.163Z,91.69
2023-03-22T02:11:00.051Z,91.64
2023-03-22T02:14:14.686Z,91.95
2023-03-22T02:16:51.678Z,92.14
2023-03-22T02:19:43.822Z,92.01
2023-03-22T02:22:55.264Z,91.71
2023-03-22T02:26:01.457Z,91.72
2023-03-22T02:28:53.718Z,91.83
2023-03-22T02:31:42.221Z,92.19
2023-03-22T02:34:57.645Z,92.44
2023-03-22T02:37:47.996Z,93.04
2023-03-22T02:40:41.772Z,93.42
2023-03-22T02:43:17.813Z,92.83
2023-03-22T02:46:10.590Z,93.33
2023-03-22T02:48:54.565Z,93.58
2023-03-22T02:51:38.647Z,93.69
2023-03-22T02:54:24.292Z,93.87
2023-03-22T02:57:26.139Z,93.89
2023-03-22T02:59:59.754Z,94.04
2023-03-22T03:02:33.206Z,94.11
2023-03-22T03:05:05.233Z,94.34
2023-03-22T03:07:37.032Z,94.40
2023-03-22T03:10:08.850Z,94.70
2023-03-22T03:12:38.935Z,94.75
2023-03-22T03:15:17.860Z,94.85
2023-03-22T03:18:16.115Z,94.47
2023-03-22T03:21:01.481Z,94.51
2023-03-22T03:23:57.640Z,94.22
2023-03-22T03:26:53.029Z,93.93
2023-03-22T03:29:45.462Z,93.78
2023-03-22T03:32:23.026Z,93.83
2023-03-22T03:35:03.288Z,94.16
2023-03-22T03:37:38.986Z,94.35
2023-03-22T03:40:18.213Z,94.94
2023-03-22T03:42:55.307Z,95.08
2023-03-22T03:45:29.386Z,95.26
2023-03-22T03:48:05.481Z,95.45
2023-03-22T03:50:36.822Z,95.46
2023-03-22T03:53:07.717Z,95.86
2023-03-22T03:55:38.764Z,96.09
2023-03-22T03:58:12.790Z,95.98
2023-03-22T04:00:44.833Z,96.15
2023-03-22T04:03:40.285Z,96.23
2023-03-22T04:06:31.392Z,96.30
2023-03-22T04:09:05.764Z,96.34
2023-03-22T04:11:42.471Z,96.79
2023-03-22T04:14:13.619Z,96.94
2023-03-22T04:16:43.884Z,97.17
2023-03-22T04:19:21.297Z,97.38
2023-03-22T04:21:55.194Z,97.38
2023-03-22T04:24:25.987Z,97.47
2023-03-22T04:26:56.421Z,97.59
2023-03-22T04:29:33.233Z,97.72
2023-03-22T04:32:20.075Z,97.85
2023-03-22T04:34:52.034Z,97.83
2023-03-22T04:37:28.111Z,98.32
2023-03-22T04:40:17.061Z,97.79
2023-03-22T04:43:13.303Z,97.24
2023-03-22T04:45:52.349Z,96.61
2023-03-22T04:48:25.884Z,96.95
2023-03-22T04:50:56.864Z,97.23
2023-03-22T04:53:29.681Z,97.14
2023-03-22T04:56:06.745Z,97.38
2023-03-22T04:58:43.361Z,97.05
2023-03-22T05:01:17.374Z,96.51
2023-03-22T05:03:51.080Z,96.24
2023-03-22T05:06:24.547Z,96.03
2023-03-22T05:09:11.474Z,95.93
2023-03-22T05:11:42.932Z,95.75
2023-03-22T05:14:24.998Z,95.98
2023-03-22T05:16:55.400Z,96.09
2023-03-22T05:19:25.689Z,96.18
2023-03-22T05:21:59.714Z,96.27
2023-03-22T05:24:42.876Z,96.40
2023-03-22T05:27:16.977Z,96.28
2023-03-22T05:29:48.770Z,96.61
2023-03-22T05:32:26.749Z,96.50
2023-03-22T05:34:58.866Z,96.57
2023-03-22T05:37:35.976Z,96.68
2023-03-22T05:40:11.408Z,96.71
2023-03-22T05:42:48.230Z,96.76
2023-03-22T05:45:25.576Z,97.07
2023-03-22T05:48:22.936Z,97.13
2023-03-22T05:50:53.400Z,97.27
2023-03-22T05:53:24.804Z,97.41
2023-03-22T05:56:04.195Z,97.45
2023-03-22T05:58:36.217Z,97.73
2023-03-22T06:01:18.107Z,97.90
2023-03-22T06:03:49.556Z,98.00
2023-03-22T06:06:30.608Z,98.07
2023-03-22T06:09:19.624Z,98.25
2023-03-22T06:11:54.221Z,98.39
2023-03-22T06:14:25.732Z,98.30
2023-03-22T06:17:32.103Z,98.17
2023-03-22T06:20:02.110Z,98.20
2023-03-22T06:22:34.995Z,98.22
2023-03-22T06:25:06.900Z,98.23
2023-03-22T06:27:43.655Z,97.94
2023-03-22T06:30:14.144Z,97.84
2023-03-22T06:33:10.063Z,97.51
2023-03-22T06:35:45.076Z,97.24
2023-03-22T06:38:21.581Z,97.45
2023-03-22T06:40:52.057Z,97.62
2023-03-22T06:43:22.342Z,97.53
2023-03-22T06:45:58.662Z,97.40
2023-03-22T06:48:39.899Z,97.66
2023-03-22T06:51:15.488Z,97.87
2023-03-22T06:53:46.881Z,97.68
2023-03-22T06:56:17.236Z,97.39
2023-03-22T06:58:53.443Z,97.37
2023-03-22T07:01:24.008Z,97.39
2023-03-22T07:03:53.903Z,97.44
2023-03-22T07:06:26.715Z,97.52
2023-03-22T07:08:58.019Z,97.51
2023-03-22T07:11:33.099Z,97.35
2023-03-22T07:14:05.244Z,97.34
2023-03-22T07:16:59.945Z,97.48
2023-03-22T07:19:32.996Z,97.66
2023-03-22T07:22:10.100Z,97.77
2023-03-22T07:24:47.398Z,97.91
2023-03-22T07:27:27.889Z,97.99
2023-03-22T07:29:58.969Z,98.15
2023-03-22T07:32:31.386Z,98.12
2023-03-22T07:35:08.471Z,98.17
2023-03-22T07:37:38.830Z,98.18
2023-03-22T07:40:15.660Z,98.39
2023-03-22T07:42:47.205Z,98.21
2023-03-22T07:45:37.095Z,98.34
2023-03-22T07:48:26.929Z,98.56
2023-03-22T07:51:15.447Z,98.60
2023-03-22T07:53:46.840Z,98.65
2023-03-22T07:56:17.328Z,98.86
2023-03-22T07:58:47.775Z,98.77
2023-03-22T08:01:18.465Z,98.94
2023-03-22T08:04:22.317Z,98.94
2023-03-22T08:07:01.412Z,99.25
2023-03-22T08:09:31.510Z,99.32
2023-03-22T08:12:01.472Z,99.56
2023-03-22T08:14:36.510Z,99.54
2023-03-22T08:17:12.698Z,99.73
2023-03-22T08:19:43.813Z,99.79
2023-03-22T08:22:16.632Z,99.98
2023-03-22T08:25:06.319Z,99.99
2023-03-22T08:27:42.854Z,99.99
2023-03-22T08:30:14.415Z,99.99
2023-03-22T08:32:45.895Z,99.99
2023-03-22T08:35:16.315Z,99.99
2023-03-22T08:37:46.960Z,99.99
2023-03-22T08:40:19.417Z,99.99
2023-03-22T08:42:55.228Z,99.99
2023-03-22T08:45:25.782Z,99.99
2023-03-22T08:48:03.922Z,99.99
2023-03-22T08:50:47.241Z,99.99
2023-03-22T08:53:26.630Z,99.99
2023-03-22T08:56:11.387Z,99.99
2023-03-22T08:59:05.407Z,99.99
2023-03-22T09:01:46.677Z,99.99
2023-03-22T09:04:17.556Z,99.99
2023-03-22T09:06:48.166Z,99.99
2023-03-22T09:09:18.792Z,99.93
2023-03-22T09:11:53.205Z,99.99
2023-03-22T09:14:23.773Z,99.99
2023-03-22T09:16:53.720Z,99.99
2023-03-22T09:19:24.035Z,99.99
2023-03-22T09:21:54.632Z,99.97
2023-03-22T09:24:37.239Z,99.99
2023-03-22T09:27:07.600Z,99.99
2023-03-22T09:29:37.605Z,99.76
2023-03-22T09:32:14.214Z,99.80
2023-03-22T09:34:44.487Z,99.99
2023-03-22T09:37:15.812Z,99.99
2023-03-22T09:39:51.817Z,99.99
2023-03-22T09:42:34.777Z,99.99
2023-03-22T09:45:14.021Z,99.99
2023-03-22T09:47:56.863Z,99.99
2023-03-22T09:50:31.772Z,99.85
2023-03-22T09:53:02.974Z,99.99
2023-03-22T09:55:48.044Z,99.99
2023-03-22T09:58:32.850Z,99.86
2023-03-22T10:01:21.063Z,99.76
2023-03-22T10:04:11.910Z,99.69
2023-03-22T10:06:49.445Z,99.55
2023-03-22T10:09:45.281Z,99.62
2023-03-22T10:12:30.895Z,99.48
2023-03-22T10:15:22.462Z,99.24
2023-03-22T10:17:57.544Z,99.11
2023-03-22T10:20:55.627Z,98.71
2023-03-22T10:24:00.432Z,98.42
2023-03-22T10:26:44.239Z,98.20
2023-03-22T10:29:35.478Z,97.85
2023-03-22T10:32:17.700Z,97.48
2023-03-22T10:34:48.642Z,97.09
2023-03-22T10:37:36.986Z,96.42
2023-03-22T10:40:10.778Z,95.62
2023-03-22T10:42:42.073Z,94.82
2023-03-22T10:45:17.394Z,94.97
2023-03-22T10:47:51.214Z,95.16
2023-03-22T10:50:31.148Z,94.18
2023-03-22T10:53:05.563Z,93.46
2023-03-22T10:55:46.032Z,94.01
2023-03-22T10:58:20.167Z,94.06
2023-03-22T11:01:01.406Z,92.68
2023-03-22T11:03:43.840Z,93.13
2023-03-22T11:06:22.779Z,92.88
2023-03-22T11:08:55.045Z,92.49
2023-03-22T11:11:27.578Z,92.09
2023-03-22T11:14:03.256Z,92.25
2023-03-22T11:16:42.442Z,91.04
2023-03-22T11:19:27.738Z,88.66
2023-03-22T11:22:00.168Z,81.46
2023-03-22T11:24:33.472Z,73.75
2023-03-22T11:27:27.868Z,68.18
2023-03-22T11:30:10.912Z,65.97
2023-03-22T11:32:42.602Z,66.14
2023-03-22T11:35:22.458Z,74.74
2023-03-22T11:37:57.849Z,79.30
2023-03-22T11:40:30.019Z,83.01
2023-03-22T11:43:22.596Z,82.98
2023-03-22T11:45:57.817Z,82.31
2023-03-22T11:48:29.485Z,86.07
2023-03-22T11:51:14.384Z,83.34
2023-03-22T11:53:49.298Z,81.53
2023-03-22T11:56:23.486Z,78.14
2023-03-22T11:58:57.490Z,79.05
2023-03-22T12:01:45.861Z,79.41
2023-03-22T12:04:23.643Z,79.50
2023-03-22T12:06:57.812Z,79.04
2023-03-22T12:09:45.339Z,78.48
2023-03-22T12:12:20.788Z,79.82
2023-03-22T12:14:59.772Z,78.19
2023-03-22T12:17:51.469Z,74.70
2023-03-22T12:20:39.140Z,73.68
2023-03-22T12:23:23.697Z,72.56
2023-03-22T12:26:08.163Z,70.31
2023-03-22T12:28:58.450Z,72.73
2023-03-22T12:31:45.646Z,73.40
2023-03-22T12:34:20.381Z,71.04
2023-03-22T12:36:59.124Z,69.92
2023-03-22T12:39:39.916Z,70.42
2023-03-22T12:42:40.463Z,71.01
2023-03-22T12:45:24.824Z,68.72
2023-03-22T12:48:02.708Z,70.55
2023-03-22T12:50:43.570Z,70.59
2023-03-22T12:53:17.843Z,75.22
2023-03-22T12:55:49.930Z,66.18
2023-03-22T12:58:24.307Z,66.96
2023-03-22T13:01:20.213Z,70.81
2023-03-22T13:03:56.348Z,68.42
2023-03-22T13:06:56.611Z,70.10
2023-03-22T13:09:30.058Z,68.98
2023-03-22T13:12:18.411Z,72.32
2023-03-22T13:14:53.804Z,68.63
2023-03-22T13:17:28.198Z,72.98
2023-03-22T13:20:03.215Z,67.53
2023-03-22T13:22:38.910Z,64.01
2023-03-22T13:25:15.885Z,65.86
2023-03-22T13:27:58.861Z,66.12
2023-03-22T13:30:30.143Z,63.99
2023-03-22T13:33:10.780Z,63.89
2023-03-22T13:35:56.292Z,65.07
2023-03-22T13:38:38.965Z,63.68
2023-03-22T13:41:25.937Z,67.29
2023-03-22T13:44:01.697Z,65.62
2023-03-22T13:46:38.504Z,67.74
2023-03-22T13:49:30.270Z,68.70
2023-03-22T13:52:09.252Z,67.69
2023-03-22T13:54:51.282Z,66.36
2023-03-22T13:57:50.351Z,63.35
2023-03-22T14:00:36.426Z,59.82
2023-03-22T14:03:30.387Z,62.90
2023-03-22T14:06:12.188Z,65.11
2023-03-22T14:08:47.049Z,68.66
2023-03-22T14:11:39.166Z,64.83
2023-03-22T14:14:18.734Z,67.59
2023-03-22T14:17:00.555Z,65.70
2023-03-22T14:19:34.372Z,65.18
